Time;durP1;ratioP1;P1;durP2;ratioP2;P2;SDS_P1;SDS_P2;PMS_P1;PMS_P2;Temp;Humidity;BMP_temperature;BMP_pressure;BME280_temperature;BME280_humidity;BME280_pressure;Samples;Min_cycle;Max_cycle;Signal;HPM_P1;HPM_P2
2022/04/30 00:01:08;;;;;;;12.63;8.93;;;4.40;99.90;;;;;;5076133;28;20060;-49
2022/04/30 00:03:34;;;;;;;10.95;9.02;;;4.40;99.90;;;;;;5106328;28;20051;-50
2022/04/30 00:05:59;;;;;;;12.38;9.45;;;4.40;99.90;;;;;;5101953;28;20051;-52
2022/04/30 00:08:25;;;;;;;15.40;9.00;;;4.30;99.90;;;;;;5089556;28;20054;-46
2022/04/30 00:10:53;;;;;;;14.48;9.25;;;4.30;99.90;;;;;;5108302;27;20071;-46
2022/04/30 00:13:19;;;;;;;13.25;9.57;;;4.30;99.90;;;;;;5083674;28;20047;-48
2022/04/30 00:15:45;;;;;;;12.05;9.15;;;4.30;99.90;;;;;;5091010;28;20109;-47
2022/04/30 00:18:11;;;;;;;15.23;9.93;;;4.30;99.90;;;;;;5094482;28;20044;-49
2022/04/30 00:20:47;;;;;;;16.65;10.23;;;4.30;99.90;;;;;;5089914;28;20551;-45
2022/04/30 00:23:19;;;;;;;15.77;9.65;;;4.30;99.90;;;;;;5088629;28;20062;-47
2022/04/30 00:25:50;;;;;;;13.43;8.93;;;4.30;99.90;;;;;;5073195;28;20056;-48
2022/04/30 00:28:20;;;;;;;12.13;9.57;;;4.30;99.90;;;;;;5073411;28;20135;-49
2022/04/30 00:30:47;;;;;;;14.02;9.75;;;4.20;99.90;;;;;;5074169;28;20058;-47
2022/04/30 00:33:13;;;;;;;12.88;9.55;;;4.20;99.90;;;;;;5096190;28;20075;-50
2022/04/30 00:35:40;;;;;;;12.75;9.73;;;4.20;99.90;;;;;;5092226;28;20449;-48
2022/04/30 00:38:06;;;;;;;12.50;9.77;;;4.20;99.90;;;;;;5098364;28;20138;-47
2022/04/30 00:40:32;;;;;;;14.15;10.73;;;4.20;99.90;;;;;;5100131;28;20566;-47
2022/04/30 00:42:58;;;;;;;10.70;9.38;;;4.20;99.90;;;;;;5084193;28;20347;-51
2022/04/30 00:45:24;;;;;;;16.30;10.45;;;4.30;99.90;;;;;;5081667;28;20071;-43
2022/04/30 00:47:50;;;;;;;12.68;9.85;;;4.30;99.90;;;;;;5095798;28;20465;-48
2022/04/30 00:50:16;;;;;;;12.43;9.75;;;4.20;99.90;;;;;;5102596;28;20043;-50
2022/04/30 00:52:46;;;;;;;11.82;9.23;;;4.20;99.90;;;;;;5086694;28;20558;-50
2022/04/30 00:55:13;;;;;;;13.65;9.07;;;4.20;99.90;;;;;;5082556;28;20048;-47
2022/04/30 00:57:43;;;;;;;14.65;10.32;;;4.20;99.90;;;;;;5085880;28;20522;-50
2022/04/30 01:00:10;;;;;;;12.80;8.93;;;4.20;99.90;;;;;;5076427;28;20051;-52
2022/04/30 01:02:36;;;;;;;14.13;9.85;;;4.20;99.90;;;;;;5065283;28;20463;-48
2022/04/30 01:05:03;;;;;;;11.25;8.77;;;4.10;99.90;;;;;;5089698;28;20059;-50
2022/04/30 01:07:30;;;;;;;9.98;8.40;;;4.10;99.90;;;;;;5096787;28;20052;-51
2022/04/30 01:09:56;;;;;;;12.13;8.95;;;4.10;99.90;;;;;;5070101;28;20512;-53
2022/04/30 01:12:23;;;;;;;14.05;10.38;;;4.00;99.90;;;;;;5078528;28;20055;-52
2022/04/30 01:14:52;;;;;;;14.15;9.73;;;4.00;99.90;;;;;;5070533;28;20056;-51
2022/04/30 01:17:18;;;;;;;11.38;8.88;;;4.00;99.90;;;;;;5072605;28;20112;-50
2022/04/30 01:19:47;;;;;;;11.82;9.52;;;4.00;99.90;;;;;;5079955;28;20159;-52
2022/04/30 01:22:40;;;;;;;12.93;9.27;;;4.00;99.90;;;;;;5075208;28;20056;-46
2022/04/30 01:25:09;;;;;;;12.13;9.88;;;4.00;99.90;;;;;;5093399;28;20108;-47
2022/04/30 01:27:36;;;;;;;14.20;10.00;;;4.00;99.90;;;;;;5101232;28;20589;-50
2022/04/30 01:30:04;;;;;;;11.70;9.73;;;4.00;99.90;;;;;;5083451;28;20071;-47
2022/04/30 01:38:09;;;;;;;13.45;9.57;;;4.10;99.90;;;;;;5070014;28;20059;-45
2022/04/30 01:40:34;;;;;;;13.25;9.50;;;4.10;99.90;;;;;;5088938;28;20526;-50
2022/04/30 01:43:01;;;;;;;11.38;10.18;;;4.10;99.90;;;;;;5071578;28;20109;-44
2022/04/30 01:45:28;;;;;;;13.10;9.50;;;4.10;99.90;;;;;;5086364;28;20438;-49
2022/04/30 01:47:56;;;;;;;9.95;8.65;;;4.10;99.90;;;;;;5093035;28;20056;-47
2022/04/30 01:50:23;;;;;;;12.48;9.82;;;4.10;99.90;;;;;;5095031;28;20421;-48
2022/04/30 01:52:49;;;;;;;11.00;9.75;;;4.20;99.90;;;;;;5101118;28;20108;-42
2022/04/30 01:55:15;;;;;;;11.80;9.35;;;4.20;99.90;;;;;;5100038;28;20039;-49
2022/04/30 01:57:42;;;;;;;11.98;10.15;;;4.10;99.90;;;;;;5100714;28;20062;-50
2022/04/30 02:00:09;;;;;;;9.77;8.63;;;4.10;99.90;;;;;;5099485;28;20600;-49
2022/04/30 02:02:40;;;;;;;11.85;9.00;;;4.10;99.90;;;;;;5100469;28;20213;-48
2022/04/30 02:05:09;;;;;;;13.88;8.98;;;4.10;99.90;;;;;;5086881;28;20047;-48
2022/04/30 02:08:20;;;;;;;13.57;10.65;;;4.20;99.90;;;;;;5100140;28;20114;-51
2022/04/30 02:10:48;;;;;;;12.38;9.35;;;4.20;99.90;;;;;;5015562;28;20107;-49
2022/04/30 02:13:19;;;;;;;13.40;9.82;;;4.30;99.90;;;;;;4998577;28;20061;-46
2022/04/30 02:15:46;;;;;;;15.45;10.70;;;4.30;99.90;;;;;;5004910;28;20143;-50
2022/04/30 02:18:15;;;;;;;14.52;10.25;;;4.20;99.90;;;;;;4984249;28;20064;-49
2022/04/30 02:20:44;;;;;;;13.43;9.98;;;4.20;99.90;;;;;;4983697;28;20112;-46
2022/04/30 02:23:14;;;;;;;13.23;9.85;;;4.30;99.90;;;;;;5001622;28;20096;-53
2022/04/30 02:25:41;;;;;;;11.68;9.95;;;4.20;99.90;;;;;;5007814;28;20049;-48
2022/04/30 02:28:08;;;;;;;15.25;9.38;;;4.30;99.90;;;;;;5010530;28;20124;-47
2022/04/30 02:30:36;;;;;;;13.13;9.55;;;4.30;99.90;;;;;;4983034;28;20053;-55
2022/04/30 02:33:09;;;;;;;14.52;10.80;;;4.30;99.90;;;;;;4991752;28;20587;-50
2022/04/30 02:35:39;;;;;;;11.35;9.80;;;4.30;99.90;;;;;;4988733;28;20045;-50
2022/04/30 02:38:08;;;;;;;13.98;9.40;;;4.30;99.90;;;;;;4998286;28;20061;-47
2022/04/30 02:40:35;;;;;;;15.27;10.30;;;4.40;99.90;;;;;;5016771;28;20151;-49
2022/04/30 02:43:06;;;;;;;13.32;9.95;;;4.40;99.90;;;;;;4999258;28;20069;-49
2022/04/30 02:45:33;;;;;;;11.68;9.77;;;4.40;99.90;;;;;;4979220;28;20085;-46
2022/04/30 02:47:59;;;;;;;11.73;10.13;;;4.40;99.90;;;;;;5055441;28;20653;-48
2022/04/30 02:50:25;;;;;;;15.48;11.20;;;4.50;99.90;;;;;;5081658;28;20112;-44
2022/04/30 02:52:55;;;;;;;13.65;10.88;;;4.50;99.90;;;;;;5100862;28;20055;-45
2022/04/30 02:55:22;;;;;;;14.73;11.48;;;4.50;99.90;;;;;;5100418;28;20105;-42
2022/04/30 03:00:45;;;;;;;12.02;10.43;;;4.50;99.90;;;;;;5098903;28;20055;-50
2022/04/30 03:03:13;;;;;;;16.50;11.23;;;4.60;99.90;;;;;;5099757;28;20151;-47
2022/04/30 03:05:42;;;;;;;14.32;10.80;;;4.60;99.90;;;;;;5085275;28;20055;-49
2022/04/30 03:08:12;;;;;;;18.42;10.57;;;4.60;99.90;;;;;;5068147;28;20058;-47
2022/04/30 03:10:43;;;;;;;13.73;10.77;;;4.60;99.90;;;;;;5069241;28;20055;-49
2022/04/30 03:13:09;;;;;;;14.32;11.05;;;4.50;99.90;;;;;;5081672;28;20486;-50
2022/04/30 03:15:35;;;;;;;12.32;10.07;;;4.50;99.90;;;;;;5099272;28;20047;-49
2022/04/30 03:23:37;;;;;;;10.82;9.02;;;4.40;99.90;;;;;;5080491;28;20170;-50
2022/04/30 03:26:06;;;;;;;12.77;10.10;;;4.40;99.90;;;;;;5097656;28;20047;-50
2022/04/30 03:28:32;;;;;;;13.27;10.30;;;4.30;99.90;;;;;;5098527;28;20126;-47
2022/04/30 03:30:59;;;;;;;13.07;10.50;;;4.30;99.90;;;;;;5076444;28;20477;-46
2022/04/30 03:33:26;;;;;;;15.32;11.02;;;4.30;99.90;;;;;;5086228;28;20044;-47
2022/04/30 03:35:52;;;;;;;15.35;11.07;;;4.30;99.90;;;;;;5094511;28;20606;-48
2022/04/30 03:38:18;;;;;;;12.75;10.05;;;4.30;99.90;;;;;;5091983;28;20044;-50
2022/04/30 03:40:43;;;;;;;13.65;11.68;;;4.40;99.90;;;;;;5090974;28;20097;-49
2022/04/30 03:43:09;;;;;;;14.43;11.27;;;4.40;99.90;;;;;;5087695;28;20051;-51
2022/04/30 03:45:36;;;;;;;15.57;11.65;;;4.40;99.90;;;;;;5092791;28;20057;-49
2022/04/30 03:48:03;;;;;;;12.65;11.23;;;4.50;99.90;;;;;;5080517;28;20476;-48
2022/04/30 03:50:29;;;;;;;12.88;11.02;;;4.40;99.90;;;;;;5065535;28;20047;-47
2022/04/30 03:52:55;;;;;;;15.57;11.18;;;4.50;99.90;;;;;;5080184;28;20518;-47
2022/04/30 03:55:22;;;;;;;12.10;10.70;;;4.50;99.90;;;;;;5070002;28;20048;-47
2022/04/30 03:57:48;;;;;;;14.82;11.00;;;4.50;99.90;;;;;;5100939;28;20052;-48
2022/04/30 04:00:14;;;;;;;12.40;10.98;;;4.50;99.90;;;;;;5069428;28;20048;-49
2022/04/30 04:02:41;;;;;;;11.27;10.05;;;4.50;99.90;;;;;;5061653;28;20043;-48
2022/04/30 04:05:12;;;;;;;12.45;10.57;;;4.40;99.90;;;;;;5080893;28;20586;-50
2022/04/30 04:07:40;;;;;;;13.45;10.77;;;4.50;99.90;;;;;;5072010;28;20969;-45
2022/04/30 04:10:07;;;;;;;12.73;10.55;;;4.50;99.90;;;;;;5090769;28;20051;-50
2022/04/30 04:12:32;;;;;;;13.82;11.07;;;4.50;99.90;;;;;;5098869;28;20528;-47
2022/04/30 04:17:43;;;;;;;11.55;10.27;;;4.50;99.90;;;;;;5100071;28;20424;-51
2022/04/30 04:20:11;;;;;;;13.52;11.73;;;4.60;99.90;;;;;;5094162;28;20101;-46
2022/04/30 04:22:37;;;;;;;13.82;11.07;;;4.60;99.90;;;;;;5078846;28;20159;-51
2022/04/30 04:27:53;;;;;;;12.27;10.45;;;4.70;99.90;;;;;;5094151;28;20059;-50
2022/04/30 04:30:21;;;;;;;15.18;10.45;;;4.70;99.90;;;;;;5072762;28;20423;-47
2022/04/30 04:32:47;;;;;;;15.73;11.27;;;4.80;99.90;;;;;;5098322;28;20047;-52
2022/04/30 04:35:14;;;;;;;12.43;11.13;;;4.80;99.90;;;;;;5098487;28;20173;-51
2022/04/30 04:37:41;;;;;;;12.85;11.07;;;4.80;99.90;;;;;;5072507;28;20179;-50
2022/04/30 04:40:09;;;;;;;12.65;10.57;;;4.90;99.90;;;;;;5090794;28;20055;-49
2022/04/30 04:42:39;;;;;;;13.52;11.10;;;4.90;99.90;;;;;;5080551;28;20062;-46
2022/04/30 04:45:05;;;;;;;14.60;11.02;;;5.00;99.90;;;;;;5093426;28;20051;-47
2022/04/30 04:47:34;;;;;;;13.63;10.38;;;5.00;99.90;;;;;;5066017;28;20056;-49
2022/04/30 04:50:01;;;;;;;12.48;10.63;;;5.00;99.90;;;;;;5106669;28;20047;-46
2022/04/30 04:52:30;;;;;;;13.25;11.73;;;5.10;99.90;;;;;;5099526;28;20047;-50
2022/04/30 04:54:57;;;;;;;16.80;11.13;;;5.20;99.90;;;;;;5100742;28;20097;-46
2022/04/30 04:57:23;;;;;;;13.98;11.18;;;5.30;99.90;;;;;;5077912;28;20105;-47
2022/04/30 04:59:49;;;;;;;14.15;10.55;;;5.40;99.90;;;;;;5075915;28;20051;-50
2022/04/30 05:02:16;;;;;;;11.70;10.48;;;5.40;99.90;;;;;;5068977;28;20133;-52
2022/04/30 05:04:42;;;;;;;14.07;10.95;;;5.50;99.90;;;;;;5084696;28;20044;-49
2022/04/30 05:07:07;;;;;;;14.57;11.00;;;5.50;99.90;;;;;;5070274;28;20403;-48
2022/04/30 05:09:33;;;;;;;12.48;10.45;;;5.60;99.90;;;;;;5093955;27;20060;-51
2022/04/30 05:12:01;;;;;;;11.98;10.77;;;5.70;99.90;;;;;;5087250;28;20043;-46
2022/04/30 05:14:31;;;;;;;12.50;11.02;;;5.80;99.90;;;;;;5093260;28;20083;-49
2022/04/30 05:16:57;;;;;;;12.43;11.18;;;5.90;99.90;;;;;;5085335;28;20148;-51
2022/04/30 05:19:23;;;;;;;11.77;10.25;;;5.90;99.90;;;;;;5092482;28;20549;-50
2022/04/30 05:21:49;;;;;;;12.70;10.95;;;6.00;99.90;;;;;;5097441;28;20057;-52
2022/04/30 05:24:14;;;;;;;12.77;11.10;;;6.10;99.90;;;;;;5073464;28;20501;-48
2022/04/30 05:26:41;;;;;;;13.13;10.55;;;6.10;99.90;;;;;;5069010;28;20063;-49
2022/04/30 05:29:07;;;;;;;15.05;11.02;;;6.20;99.90;;;;;;5093973;28;20087;-49
2022/04/30 05:31:32;;;;;;;14.60;9.90;;;6.20;99.90;;;;;;5073133;28;20134;-50
2022/04/30 05:33:58;;;;;;;12.20;11.00;;;6.30;99.90;;;;;;5092791;28;20497;-53
2022/04/30 05:36:24;;;;;;;15.23;10.52;;;6.40;99.90;;;;;;5075458;28;20474;-43
2022/04/30 05:38:51;;;;;;;15.95;11.77;;;6.50;99.90;;;;;;5094239;28;20055;-49
2022/04/30 05:41:17;;;;;;;13.18;11.77;;;6.60;99.90;;;;;;5100358;28;20480;-50
2022/04/30 05:43:44;;;;;;;12.75;11.43;;;6.60;99.90;;;;;;5078490;28;20052;-48
2022/04/30 05:46:09;;;;;;;13.50;12.18;;;6.70;99.90;;;;;;5095613;28;20079;-49
2022/04/30 05:48:35;;;;;;;15.27;10.82;;;6.80;99.90;;;;;;5096164;28;20126;-46
2022/04/30 05:51:04;;;;;;;12.23;10.45;;;6.80;99.90;;;;;;5091368;28;20043;-51
2022/04/30 05:53:30;;;;;;;14.70;10.80;;;6.90;99.90;;;;;;5076998;28;20047;-46
2022/04/30 05:55:56;;;;;;;17.15;11.10;;;7.00;99.90;;;;;;5081635;28;20044;-53
2022/04/30 05:58:21;;;;;;;15.52;11.27;;;7.10;99.90;;;;;;5092833;28;20047;-52
2022/04/30 06:00:47;;;;;;;15.18;11.65;;;7.20;99.90;;;;;;5078558;28;20439;-52
2022/04/30 06:03:13;;;;;;;13.85;11.50;;;7.20;99.90;;;;;;5084337;28;20039;-49
2022/04/30 06:05:38;;;;;;;13.48;11.68;;;7.30;99.90;;;;;;5082431;28;20133;-52
2022/04/30 06:08:05;;;;;;;13.07;11.82;;;7.40;99.90;;;;;;5096526;28;20044;-49
2022/04/30 06:10:31;;;;;;;17.42;11.43;;;7.50;99.90;;;;;;5069722;28;20051;-49
2022/04/30 06:12:57;;;;;;;16.02;11.30;;;7.60;99.90;;;;;;5094910;28;20112;-49
2022/04/30 06:15:23;;;;;;;12.52;11.15;;;7.60;99.90;;;;;;5082426;28;20051;-49
2022/04/30 06:17:49;;;;;;;17.95;11.55;;;7.80;99.90;;;;;;5096075;28;20047;-48
2022/04/30 06:20:15;;;;;;;15.88;11.77;;;7.90;99.90;;;;;;5070721;28;20104;-53
2022/04/30 06:22:41;;;;;;;14.10;12.55;;;8.00;99.90;;;;;;5073705;28;20099;-51
2022/04/30 06:25:07;;;;;;;15.35;12.60;;;8.40;99.90;;;;;;5072967;28;20052;-50
2022/04/30 06:27:34;;;;;;;16.45;12.77;;;9.00;99.90;;;;;;5101904;28;20043;-49
2022/04/30 06:30:03;;;;;;;15.30;12.13;;;9.80;99.90;;;;;;5098412;28;20126;-49
2022/04/30 06:32:29;;;;;;;14.55;10.57;;;10.60;99.90;;;;;;5096966;28;20135;-52
2022/04/30 06:34:55;;;;;;;13.32;10.65;;;11.20;99.90;;;;;;5099688;28;20047;-43
2022/04/30 06:37:20;;;;;;;12.20;10.63;;;11.80;99.90;;;;;;5092729;28;20052;-48
2022/04/30 06:39:52;;;;;;;12.23;10.27;;;12.30;99.90;;;;;;5079682;28;20220;-47
2022/04/30 06:42:17;;;;;;;11.95;9.90;;;12.70;99.90;;;;;;5074552;28;20056;-49
2022/04/30 06:44:43;;;;;;;10.90;9.60;;;12.70;99.90;;;;;;5089647;28;20058;-49
2022/04/30 06:47:09;;;;;;;14.30;10.80;;;12.70;99.90;;;;;;5085002;28;20043;-52
2022/04/30 06:49:35;;;;;;;11.90;9.65;;;13.10;99.90;;;;;;5067997;28;20134;-53
2022/04/30 06:52:01;;;;;;;12.65;10.18;;;13.60;99.90;;;;;;5087865;28;20131;-53
2022/04/30 06:57:11;;;;;;;12.80;10.10;;;14.50;99.90;;;;;;5088474;28;20100;-51
2022/04/30 06:59:40;;;;;;;11.65;8.75;;;14.90;99.90;;;;;;5091791;28;20516;-48
2022/04/30 07:02:13;;;;;;;10.23;8.23;;;15.30;99.90;;;;;;5100085;28;20052;-52
2022/04/30 07:04:41;;;;;;;8.90;8.00;;;15.60;99.90;;;;;;5093200;28;20060;-51
2022/04/30 07:07:08;;;;;;;9.77;8.35;;;15.60;99.90;;;;;;5093268;28;20056;-51
2022/04/30 07:09:34;;;;;;;9.60;8.10;;;15.80;99.90;;;;;;5076669;28;20127;-55
2022/04/30 07:12:04;;;;;;;8.77;6.30;;;16.30;99.90;;;;;;5066840;28;20048;-45
2022/04/30 07:14:32;;;;;;;9.90;7.45;;;16.30;99.90;;;;;;5087977;28;20047;-48
2022/04/30 07:16:58;;;;;;;8.55;7.25;;;16.40;99.90;;;;;;5089305;28;20082;-50
2022/04/30 07:19:23;;;;;;;9.93;6.85;;;16.50;99.90;;;;;;5089396;28;20502;-52
2022/04/30 07:21:49;;;;;;;8.38;7.10;;;16.40;99.90;;;;;;5098523;28;20131;-51
2022/04/30 07:24:15;;;;;;;8.85;7.20;;;16.30;99.90;;;;;;5097125;28;20045;-53
2022/04/30 07:26:41;;;;;;;10.43;7.40;;;16.30;99.90;;;;;;5099333;28;20533;-49
2022/04/30 07:29:06;;;;;;;9.48;6.38;;;16.20;99.90;;;;;;5072619;28;20051;-49
2022/04/30 07:31:37;;;;;;;8.80;7.20;;;15.70;99.90;;;;;;5089834;28;20056;-49
2022/04/30 07:34:04;;;;;;;9.13;7.68;;;16.00;99.90;;;;;;5062502;28;20047;-50
2022/04/30 07:36:31;;;;;;;8.65;7.55;;;15.80;99.90;;;;;;5096121;28;20048;-48
2022/04/30 07:38:57;;;;;;;10.15;7.78;;;15.90;99.90;;;;;;5100496;28;20520;-52
2022/04/30 07:41:24;;;;;;;10.93;7.22;;;15.60;99.90;;;;;;5088543;28;20055;-51
2022/04/30 07:43:50;;;;;;;10.02;7.80;;;15.10;99.90;;;;;;5071325;28;20062;-48
2022/04/30 07:46:16;;;;;;;10.50;8.35;;;14.50;99.90;;;;;;5069606;28;20059;-54
2022/04/30 07:48:42;;;;;;;8.88;7.22;;;14.00;99.90;;;;;;5083345;28;20047;-49
2022/04/30 07:51:14;;;;;;;9.13;7.70;;;13.60;99.90;;;;;;5089754;28;20406;-52
2022/04/30 07:53:43;;;;;;;11.38;8.60;;;13.40;99.90;;;;;;5054180;28;20269;-50
2022/04/30 07:56:10;;;;;;;9.68;8.10;;;13.10;99.90;;;;;;5106026;28;20418;-50
2022/04/30 07:58:35;;;;;;;13.82;8.23;;;12.80;99.90;;;;;;5104639;28;20058;-53
2022/04/30 08:01:01;;;;;;;10.25;7.85;;;12.60;99.90;;;;;;5090705;28;20048;-53
2022/04/30 08:03:27;;;;;;;10.77;8.40;;;12.60;99.90;;;;;;5072538;28;20210;-48
2022/04/30 08:05:52;;;;;;;11.13;8.07;;;12.50;99.90;;;;;;5093957;28;20055;-51
2022/04/30 08:08:18;;;;;;;13.23;8.88;;;12.20;99.90;;;;;;5084137;28;20510;-51
2022/04/30 08:10:45;;;;;;;13.20;7.88;;;12.00;99.90;;;;;;5069820;28;20570;-52
2022/04/30 08:13:11;;;;;;;11.10;8.43;;;11.90;99.90;;;;;;5089010;28;20060;-51
2022/04/30 08:15:43;;;;;;;12.60;8.18;;;11.80;99.90;;;;;;5090225;28;20048;-50
2022/04/30 08:18:12;;;;;;;13.57;8.35;;;11.80;99.90;;;;;;5094403;28;20517;-53
2022/04/30 08:20:39;;;;;;;12.68;9.43;;;11.90;99.90;;;;;;5094538;28;20055;-54
2022/04/30 08:23:08;;;;;;;10.27;9.25;;;11.80;99.90;;;;;;5091881;28;20456;-49
2022/04/30 08:25:35;;;;;;;12.15;9.75;;;11.70;99.90;;;;;;5096265;28;20044;-52
2022/04/30 08:28:02;;;;;;;14.93;11.25;;;11.70;99.90;;;;;;5075658;28;20484;-49
2022/04/30 08:30:29;;;;;;;15.80;11.07;;;11.60;99.90;;;;;;5093997;28;20079;-49
2022/04/30 08:32:55;;;;;;;12.32;11.05;;;11.50;99.90;;;;;;5099929;28;20051;-53
2022/04/30 08:35:21;;;;;;;12.25;10.10;;;11.50;99.90;;;;;;5077595;28;20558;-50
2022/04/30 08:37:47;;;;;;;16.27;11.57;;;11.50;99.90;;;;;;5098968;28;20101;-52
2022/04/30 08:40:13;;;;;;;16.90;10.43;;;11.40;99.90;;;;;;5093634;28;20417;-52
2022/04/30 08:42:38;;;;;;;14.15;10.77;;;11.40;99.90;;;;;;5076709;28;20835;-53
2022/04/30 08:45:08;;;;;;;12.55;10.52;;;11.20;99.90;;;;;;5082818;28;20083;-51
2022/04/30 08:47:42;;;;;;;15.52;10.45;;;11.20;99.90;;;;;;5076202;28;20494;-51
2022/04/30 08:50:13;;;;;;;15.60;10.30;;;11.20;99.90;;;;;;5087212;28;20044;-47
2022/04/30 08:52:39;;;;;;;11.68;10.20;;;11.20;99.90;;;;;;5074414;28;20213;-52
2022/04/30 08:55:06;;;;;;;12.93;10.65;;;11.20;99.90;;;;;;5102233;28;20040;-53
2022/04/30 08:57:32;;;;;;;44.50;41.03;;;11.20;99.90;;;;;;5102030;28;20079;-50
2022/04/30 08:59:58;;;;;;;12.88;10.23;;;11.20;99.90;;;;;;5091234;28;20047;-49
2022/04/30 09:02:25;;;;;;;11.73;9.68;;;11.20;99.90;;;;;;5079243;28;20043;-47
2022/04/30 09:04:50;;;;;;;31.35;28.20;;;11.20;99.90;;;;;;5084234;28;20054;-54
2022/04/30 09:07:21;;;;;;;13.77;10.15;;;11.30;99.90;;;;;;5091482;28;20098;-50
2022/04/30 09:10:01;;;;;;;12.60;9.10;;;11.20;99.90;;;;;;5088983;27;20604;-48
2022/04/30 09:12:31;;;;;;;11.10;9.35;;;11.20;99.90;;;;;;5092194;28;20043;-51
2022/04/30 09:14:59;;;;;;;10.82;8.50;;;11.10;99.90;;;;;;5095481;28;20040;-50
2022/04/30 09:17:27;;;;;;;10.88;8.82;;;11.30;99.90;;;;;;5086007;28;20078;-50
2022/04/30 09:20:02;;;;;;;13.68;11.85;;;11.30;99.90;;;;;;5066213;28;20073;-54
2022/04/30 09:22:35;;;;;;;12.98;7.55;;;11.40;99.90;;;;;;5092220;28;20090;-45
2022/04/30 09:25:03;;;;;;;11.77;7.32;;;11.40;99.90;;;;;;5089273;28;20525;-50
2022/04/30 09:27:31;;;;;;;9.82;7.50;;;11.40;99.90;;;;;;5092808;28;20081;-53
2022/04/30 09:29:57;;;;;;;12.60;8.63;;;11.40;99.90;;;;;;5071393;28;20459;-51
2022/04/30 09:32:25;;;;;;;10.80;8.52;;;11.40;99.90;;;;;;5092575;28;20126;-49
2022/04/30 09:37:46;;;;;;;14.05;9.05;;;11.30;99.90;;;;;;5099341;28;20052;-49
2022/04/30 09:40:14;;;;;;;23.08;10.45;;;11.30;99.90;;;;;;5068011;28;20052;-49
2022/04/30 09:42:42;;;;;;;14.45;10.95;;;11.40;99.90;;;;;;5087789;28;20090;-53
2022/04/30 09:45:09;;;;;;;13.38;10.10;;;11.40;99.90;;;;;;5068452;28;20381;-54
2022/04/30 09:47:35;;;;;;;20.75;10.68;;;11.60;99.90;;;;;;5096451;28;20051;-50
2022/04/30 09:55:53;;;;;;;16.60;10.85;;;11.90;99.90;;;;;;5009492;28;20520;-48
2022/04/30 09:58:26;;;;;;;12.80;10.07;;;12.10;99.90;;;;;;5008037;28;20089;-54
2022/04/30 10:00:57;;;;;;;10.82;8.60;;;12.20;99.90;;;;;;5003673;28;20056;-53
2022/04/30 10:03:28;;;;;;;9.60;7.82;;;12.20;99.90;;;;;;4993787;28;20561;-52
2022/04/30 10:06:05;;;;;;;10.93;8.25;;;12.40;99.90;;;;;;5007775;28;20564;-51
2022/04/30 10:08:41;;;;;;;10.65;8.50;;;12.50;99.90;;;;;;5011801;28;20057;-50
2022/04/30 10:11:14;;;;;;;10.82;8.18;;;12.50;99.90;;;;;;5008750;28;20056;-53
2022/04/30 10:14:14;;;;;;;7.93;6.05;;;12.60;99.90;;;;;;5014329;28;20087;-55
2022/04/30 10:16:42;;;;;;;10.00;7.43;;;12.80;99.90;;;;;;4992792;28;20060;-52
2022/04/30 10:19:15;;;;;;;8.40;5.60;;;12.80;99.90;;;;;;5012007;28;20049;-44
2022/04/30 10:21:41;;;;;;;11.43;6.57;;;12.70;99.90;;;;;;4997182;28;20057;-53
2022/04/30 10:24:09;;;;;;;10.18;6.43;;;12.80;99.90;;;;;;5013927;28;20095;-55
2022/04/30 10:26:35;;;;;;;10.27;7.13;;;12.80;99.90;;;;;;5014623;28;20121;-50
2022/04/30 10:29:12;;;;;;;8.32;6.13;;;12.80;99.90;;;;;;5027666;28;20047;-51
2022/04/30 10:31:45;;;;;;;10.65;7.38;;;12.60;99.90;;;;;;5095992;28;20043;-55
2022/04/30 10:34:14;;;;;;;11.05;6.85;;;12.70;99.90;;;;;;5080965;28;20039;-47
2022/04/30 10:36:40;;;;;;;7.53;6.13;;;12.70;99.90;;;;;;5095486;28;20128;-53
2022/04/30 10:39:09;;;;;;;7.22;6.00;;;12.70;99.90;;;;;;5096865;28;20089;-48
2022/04/30 10:41:43;;;;;;;10.45;7.68;;;12.60;99.90;;;;;;5097133;28;20611;-50
2022/04/30 10:44:09;;;;;;;11.70;8.40;;;12.70;99.90;;;;;;5085347;28;20130;-51
2022/04/30 10:46:37;;;;;;;10.98;8.07;;;12.60;99.90;;;;;;5095380;28;20512;-53
2022/04/30 10:49:05;;;;;;;10.75;8.30;;;12.60;99.90;;;;;;5098303;28;20443;-48
2022/04/30 10:51:35;;;;;;;12.25;8.20;;;12.60;99.90;;;;;;5090386;28;20499;-49
2022/04/30 10:54:08;;;;;;;10.57;8.82;;;12.80;99.90;;;;;;5098041;28;20047;-51
2022/04/30 10:56:34;;;;;;;9.65;8.30;;;12.70;99.90;;;;;;5072272;28;20097;-49
2022/04/30 10:59:00;;;;;;;11.30;8.60;;;12.70;99.90;;;;;;5079367;28;20130;-50
2022/04/30 11:01:25;;;;;;;12.18;8.85;;;12.80;99.90;;;;;;5099829;28;20047;-52
2022/04/30 11:03:51;;;;;;;11.30;8.40;;;13.00;99.90;;;;;;5067746;28;20052;-53
2022/04/30 11:06:31;;;;;;;11.63;9.02;;;12.80;99.90;;;;;;5097590;28;20062;-56
2022/04/30 11:09:01;;;;;;;13.07;9.13;;;13.00;99.90;;;;;;5085043;28;20134;-54
2022/04/30 11:11:27;;;;;;;11.07;9.25;;;13.10;99.90;;;;;;5064174;28;20075;-53
2022/04/30 11:14:08;;;;;;;10.50;9.40;;;13.00;99.90;;;;;;5087014;28;20489;-51
2022/04/30 11:16:59;;;;;;;10.50;8.75;;;13.10;99.90;;;;;;5099165;28;20518;-54
2022/04/30 11:19:27;;;;;;;13.13;8.55;;;13.20;99.90;;;;;;5085204;28;20063;-52
2022/04/30 11:21:55;;;;;;;10.85;8.27;;;13.30;99.90;;;;;;5069747;28;20197;-50
2022/04/30 11:24:31;;;;;;;11.20;7.93;;;13.50;99.90;;;;;;5073730;28;20066;-52
2022/04/30 11:27:08;;;;;;;9.38;7.82;;;13.60;99.90;;;;;;5094369;28;20433;-49
2022/04/30 11:29:49;;;;;;;10.63;7.93;;;13.60;99.90;;;;;;5069828;28;20059;-52
2022/04/30 11:32:27;;;;;;;9.60;7.72;;;13.60;99.90;;;;;;5094892;28;20065;-50
2022/04/30 11:35:01;;;;;;;13.98;7.85;;;13.70;99.90;;;;;;5086773;28;20529;-43
2022/04/30 11:37:27;;;;;;;10.68;7.78;;;14.00;99.90;;;;;;5101205;28;20047;-51
2022/04/30 11:39:53;;;;;;;15.63;8.43;;;14.10;99.90;;;;;;5102855;28;20048;-55
2022/04/30 11:42:25;;;;;;;9.63;7.55;;;14.00;99.90;;;;;;5104971;28;20414;-51
2022/04/30 11:44:54;;;;;;;9.93;6.78;;;13.90;99.90;;;;;;5080151;28;20241;-50
2022/04/30 11:47:20;;;;;;;8.82;7.45;;;14.00;99.90;;;;;;5085975;28;20043;-54
2022/04/30 11:49:46;;;;;;;9.63;7.05;;;14.20;99.90;;;;;;5102800;28;20128;-54
2022/04/30 11:52:14;;;;;;;8.55;7.32;;;14.30;99.90;;;;;;5071831;28;20048;-52
2022/04/30 11:54:41;;;;;;;8.30;6.65;;;14.40;99.90;;;;;;5093791;28;20051;-55
2022/04/30 11:57:14;;;;;;;13.48;6.80;;;14.40;99.90;;;;;;5104667;28;20456;-52
2022/04/30 11:59:41;;;;;;;6.82;6.13;;;14.30;99.90;;;;;;5079288;28;20060;-53
2022/04/30 12:02:14;;;;;;;11.82;6.93;;;14.30;99.90;;;;;;5096963;28;20473;-52
2022/04/30 12:04:41;;;;;;;9.93;6.50;;;14.20;99.90;;;;;;5103553;28;20050;-52
2022/04/30 12:07:09;;;;;;;10.52;6.22;;;14.30;99.90;;;;;;5104094;28;20051;-48
2022/04/30 12:09:39;;;;;;;9.18;7.00;;;14.30;99.90;;;;;;5104291;28;20070;-53
2022/04/30 12:12:19;;;;;;;11.50;5.93;;;14.40;99.90;;;;;;5104598;28;20072;-54
2022/04/30 12:14:47;;;;;;;8.57;6.03;;;14.30;99.90;;;;;;5105274;28;20043;-54
2022/04/30 12:17:13;;;;;;;7.43;5.68;;;14.30;99.90;;;;;;5088469;28;20130;-47
2022/04/30 12:25:14;;;;;;;7.63;5.97;;;14.30;99.90;;;;;;5103154;28;20418;-55
2022/04/30 12:27:51;;;;;;;7.05;5.30;;;14.00;99.90;;;;;;5085518;28;20532;-54
2022/04/30 12:30:16;;;;;;;8.50;5.90;;;13.90;99.90;;;;;;5103155;28;20500;-46
2022/04/30 12:32:49;;;;;;;7.75;5.53;;;13.90;99.90;;;;;;5103301;28;20090;-51
2022/04/30 12:35:24;;;;;;;7.60;5.22;;;14.00;99.90;;;;;;5103478;28;20091;-50
2022/04/30 12:38:01;;;;;;;13.18;5.65;;;14.10;99.90;;;;;;5103467;28;20124;-49
2022/04/30 12:40:27;;;;;;;7.80;5.80;;;14.20;99.90;;;;;;5091930;28;20132;-55
2022/04/30 12:42:53;;;;;;;7.72;5.53;;;14.30;99.90;;;;;;5102386;28;20043;-54
2022/04/30 12:45:18;;;;;;;8.80;5.70;;;14.00;99.70;;;;;;5102162;28;20566;-49
2022/04/30 12:47:44;;;;;;;11.05;5.20;;;13.90;99.90;;;;;;5100368;28;20104;-58
2022/04/30 12:50:10;;;;;;;7.30;5.18;;;14.10;99.90;;;;;;5077929;28;20052;-54
2022/04/30 12:52:36;;;;;;;8.82;5.40;;;14.30;99.90;;;;;;5102903;28;20102;-53
2022/04/30 12:55:03;;;;;;;7.45;5.00;;;14.40;99.70;;;;;;5076225;28;20508;-50
2022/04/30 12:57:29;;;;;;;6.15;5.47;;;14.40;99.60;;;;;;5097612;28;20493;-51
2022/04/30 12:59:55;;;;;;;6.88;6.15;;;14.30;98.70;;;;;;5103033;28;20054;-48
2022/04/30 13:02:23;;;;;;;7.00;6.30;;;14.40;99.90;;;;;;5089166;28;20469;-54
2022/04/30 13:04:52;;;;;;;8.60;6.45;;;14.40;99.90;;;;;;5082144;28;20514;-50
2022/04/30 13:07:18;;;;;;;7.65;5.95;;;14.60;99.90;;;;;;5067081;28;20569;-52
2022/04/30 13:15:13;;;;;;;8.60;5.25;;;14.40;99.90;;;;;;5108146;27;20039;-51
2022/04/30 13:17:39;;;;;;;9.20;5.95;;;14.40;99.90;;;;;;5084448;28;20109;-53
2022/04/30 13:20:05;;;;;;;6.78;5.43;;;14.50;99.90;;;;;;5084659;28;20054;-51
2022/04/30 13:22:32;;;;;;;9.23;5.95;;;14.50;99.90;;;;;;5103576;28;20055;-46
2022/04/30 13:24:58;;;;;;;7.47;5.85;;;14.40;99.90;;;;;;5102988;28;20080;-51
2022/04/30 13:27:24;;;;;;;9.00;5.63;;;14.50;99.90;;;;;;5103651;28;20048;-53